Time;durP1;ratioP1;P1;durP2;ratioP2;P2;SDS_P1;SDS_P2;PMS_P1;PMS_P2;Temp;Humidity;BMP_temperature;BMP_pressure;BME280_temperature;BME280_humidity;BME280_pressure;Samples;Min_cycle;Max_cycle;Signal;HPM_P1;HPM_P2
2022/08/25 00:01:42;;;;;;;4.28;2.90;;;;;;;23.16;nan;100568.22;4984425;28;20035;-85
2022/08/25 00:04:11;;;;;;;4.50;2.70;;;;;;;23.14;nan;100570.31;4983428;28;20525;-86
2022/08/25 00:06:40;;;;;;;5.15;2.80;;;;;;;23.07;nan;100573.13;4985402;28;20042;-86
2022/08/25 00:09:07;;;;;;;4.38;2.83;;;;;;;23.04;nan;100570.91;4986346;28;20053;-85
2022/08/25 00:11:34;;;;;;;4.38;2.42;;;;;;;23.02;nan;100567.63;4986707;28;20079;-86
2022/08/25 00:14:04;;;;;;;4.13;3.00;;;;;;;23.03;nan;100567.41;4982589;28;20041;-84
2022/08/25 00:16:30;;;;;;;6.13;2.80;;;;;;;23.07;nan;100560.50;4985136;28;20050;-85
2022/08/25 00:18:58;;;;;;;3.20;2.75;;;;;;;23.07;nan;100568.59;4982461;28;20038;-86
2022/08/25 00:21:25;;;;;;;4.38;2.80;;;;;;;23.00;nan;100565.19;4986646;28;20041;-85
2022/08/25 00:23:50;;;;;;;3.38;2.50;;;;;;;22.90;nan;100568.38;4988146;28;20056;-84
2022/08/25 00:26:17;;;;;;;3.25;2.45;;;;;;;22.84;nan;100565.81;4986316;28;20118;-84
2022/08/25 00:28:43;;;;;;;4.05;2.50;;;;;;;22.80;nan;100568.16;4988287;28;20042;-86
2022/08/25 00:31:16;;;;;;;4.00;2.60;;;;;;;22.75;nan;100573.41;4983867;28;20088;-86
2022/08/25 00:33:43;;;;;;;3.60;2.50;;;;;;;22.69;nan;100577.03;4983952;28;20079;-86
2022/08/25 00:36:11;;;;;;;3.28;2.40;;;;;;;22.65;nan;100568.59;4984847;28;20457;-86
2022/08/25 00:38:38;;;;;;;3.15;2.58;;;;;;;22.61;nan;100570.09;4986798;28;20038;-86
2022/08/25 00:41:04;;;;;;;3.05;2.53;;;;;;;22.57;nan;100568.09;4981789;28;20557;-86
2022/08/25 00:43:43;;;;;;;3.55;2.42;;;;;;;22.49;nan;100566.53;4981794;28;20403;-86
2022/08/25 00:46:11;;;;;;;3.85;2.38;;;;;;;22.37;nan;100563.00;4982191;28;20042;-85
2022/08/25 00:48:38;;;;;;;3.35;2.53;;;;;;;22.28;nan;100562.47;4985500;28;20069;-86
2022/08/25 00:51:08;;;;;;;3.92;2.42;;;;;;;22.18;nan;100571.06;4983491;28;20026;-86
2022/08/25 00:53:34;;;;;;;3.10;2.40;;;;;;;22.11;nan;100578.41;4977284;28;20038;-86
2022/08/25 00:56:00;;;;;;;5.60;2.75;;;;;;;22.04;nan;100570.41;4977063;28;20085;-86
2022/08/25 00:58:29;;;;;;;3.10;2.70;;;;;;;21.99;nan;100578.34;4983628;28;20045;-86
2022/08/25 01:00:56;;;;;;;3.10;2.65;;;;;;;21.89;nan;100558.41;4983939;28;20034;-86
2022/08/25 01:03:24;;;;;;;3.17;2.60;;;;;;;21.79;nan;100570.53;4984669;28;20057;-86
2022/08/25 01:05:50;;;;;;;3.67;2.72;;;;;;;21.65;nan;100568.22;4985463;28;20122;-86
2022/08/25 01:08:19;;;;;;;3.05;2.53;;;;;;;21.54;nan;100564.38;4999494;28;20033;-85
2022/08/25 01:10:45;;;;;;;3.75;2.70;;;;;;;21.44;nan;100575.66;4982642;28;20049;-86
2022/08/25 01:13:22;;;;;;;3.53;2.58;;;;;;;21.36;nan;100576.75;4984245;28;20084;-86
2022/08/25 01:15:51;;;;;;;3.17;2.17;;;;;;;21.38;nan;100579.19;4980182;28;20054;-85
2022/08/25 01:18:17;;;;;;;3.25;2.30;;;;;;;21.33;nan;100571.81;4981406;28;20031;-86
2022/08/25 01:20:42;;;;;;;2.80;2.08;;;;;;;21.28;nan;100581.56;4983962;28;20499;-86
2022/08/25 01:23:07;;;;;;;3.30;2.20;;;;;;;21.19;nan;100579.19;4983125;28;21467;-86
2022/08/25 01:25:46;;;;;;;2.50;2.08;;;;;;;21.12;nan;100572.22;4982538;28;20034;-85
2022/08/25 01:28:11;;;;;;;3.05;2.33;;;;;;;21.06;nan;100570.41;4978305;28;20103;-87
2022/08/25 01:30:37;;;;;;;3.88;2.50;;;;;;;21.02;nan;100577.25;4983226;28;20038;-85
2022/08/25 01:33:06;;;;;;;3.00;2.42;;;;;;;21.05;nan;100574.16;4986888;28;20038;-84
2022/08/25 01:35:32;;;;;;;2.90;2.40;;;;;;;21.07;nan;100570.19;4984333;28;20047;-84
2022/08/25 01:37:58;;;;;;;3.10;2.40;;;;;;;21.06;nan;100570.41;4986383;28;20152;-84
2022/08/25 01:40:24;;;;;;;3.10;2.33;;;;;;;21.02;nan;100575.38;4983340;28;20598;-85
2022/08/25 01:42:58;;;;;;;3.08;2.40;;;;;;;20.97;nan;100568.00;4986112;28;20368;-84
2022/08/25 01:45:24;;;;;;;4.43;2.67;;;;;;;20.92;nan;100569.69;5013615;28;20149;-85
2022/08/25 01:47:50;;;;;;;3.67;2.72;;;;;;;20.85;nan;100574.28;4985979;28;20163;-85
2022/08/25 01:50:15;;;;;;;4.78;2.72;;;;;;;20.76;nan;100571.88;4982862;28;20038;-86
2022/08/25 01:53:13;;;;;;;3.45;2.70;;;;;;;20.69;nan;100571.09;4984050;28;20041;-85
2022/08/25 01:55:50;;;;;;;3.88;2.80;;;;;;;20.62;nan;100570.31;4982063;28;20077;-85
2022/08/25 01:58:25;;;;;;;3.40;2.78;;;;;;;20.55;nan;100564.13;4982614;28;20034;-86
2022/08/25 02:00:53;;;;;;;3.85;2.92;;;;;;;20.54;nan;100563.28;5068610;28;20092;-86
2022/08/25 02:03:19;;;;;;;3.38;2.92;;;;;;;20.50;nan;100572.84;4991391;28;20031;-85
2022/08/25 02:05:45;;;;;;;3.80;2.58;;;;;;;20.46;nan;100566.25;4983583;28;20034;-85
2022/08/25 02:08:10;;;;;;;4.45;2.80;;;;;;;20.40;nan;100569.78;4982328;28;20479;-84
2022/08/25 02:10:37;;;;;;;3.60;3.00;;;;;;;20.35;nan;100570.47;4983535;28;20058;-86
2022/08/25 02:13:03;;;;;;;5.57;3.50;;;;;;;20.28;nan;100574.19;4984092;28;20411;-86
2022/08/25 02:15:28;;;;;;;4.82;3.47;;;;;;;20.25;nan;100570.06;4979365;28;20065;-86
2022/08/25 02:17:54;;;;;;;6.55;3.75;;;;;;;20.20;nan;100572.59;4983059;28;20272;-86
2022/08/25 02:20:19;;;;;;;5.57;3.25;;;;;;;20.15;nan;100573.22;4977916;28;20222;-86
2022/08/25 02:22:44;;;;;;;5.40;3.83;;;;;;;20.11;nan;100573.88;4984632;28;20050;-86
2022/08/25 02:25:10;;;;;;;5.93;3.80;;;;;;;20.07;nan;100556.53;4982186;28;20038;-85
2022/08/25 02:27:35;;;;;;;3.88;3.25;;;;;;;20.04;nan;100559.66;4985281;28;20337;-85
2022/08/25 02:30:02;;;;;;;3.97;3.20;;;;;;;20.04;nan;100559.66;4982319;28;20046;-85
2022/08/25 02:32:27;;;;;;;4.30;3.30;;;;;;;20.02;nan;100562.56;4983856;28;20174;-84
2022/08/25 02:34:52;;;;;;;4.60;3.45;;;;;;;20.01;nan;100562.78;4984780;28;20050;-85
2022/08/25 02:37:19;;;;;;;4.40;3.42;;;;;;;20.01;nan;100560.09;4984683;28;20057;-86
2022/08/25 02:39:45;;;;;;;4.47;3.42;;;;;;;19.98;nan;100569.38;4980786;28;20506;-86
2022/08/25 02:42:10;;;;;;;5.28;3.70;;;;;;;19.93;nan;100564.66;4987142;28;20035;-86
2022/08/25 02:44:35;;;;;;;4.05;3.30;;;;;;;19.98;nan;100577.44;4979416;28;20117;-86
2022/08/25 02:47:01;;;;;;;4.00;2.90;;;;;;;19.96;nan;100567.97;4977124;28;20050;-84
2022/08/25 02:49:27;;;;;;;4.80;3.30;;;;;;;19.96;nan;100570.63;4972946;28;20474;-86
2022/08/25 02:51:53;;;;;;;3.55;2.75;;;;;;;19.94;nan;100562.78;4985453;28;20083;-85
2022/08/25 02:54:19;;;;;;;3.38;2.80;;;;;;;19.92;nan;100560.31;4985544;28;20034;-85
2022/08/25 02:56:44;;;;;;;3.70;2.97;;;;;;;19.94;nan;100563.59;4988330;28;20034;-85
2022/08/25 02:59:09;;;;;;;5.00;2.92;;;;;;;19.93;nan;100556.59;4979400;28;20665;-86
2022/08/25 03:01:35;;;;;;;4.03;3.30;;;;;;;19.89;nan;100555.38;4986350;28;20062;-86
2022/08/25 03:04:01;;;;;;;3.97;3.05;;;;;;;19.88;nan;100553.75;4986067;28;20219;-86
2022/08/25 03:06:27;;;;;;;4.13;3.40;;;;;;;19.86;nan;100558.50;4985515;28;20038;-85
2022/08/25 03:08:53;;;;;;;6.10;3.97;;;;;;;19.82;nan;100549.22;4984341;28;20026;-86
2022/08/25 03:11:18;;;;;;;6.30;3.97;;;;;;;19.80;nan;100550.47;4984035;28;20049;-85
2022/08/25 03:13:44;;;;;;;4.45;3.75;;;;;;;19.77;nan;100553.56;4987767;28;20092;-87
2022/08/25 03:16:09;;;;;;;4.70;3.83;;;;;;;19.74;nan;100557.50;4980494;28;20096;-85
2022/08/25 03:18:37;;;;;;;4.10;3.50;;;;;;;19.72;nan;100549.66;4987464;28;20066;-85
2022/08/25 03:21:03;;;;;;;5.00;3.90;;;;;;;19.68;nan;100555.66;4986482;28;20073;-85
2022/08/25 03:23:29;;;;;;;4.57;3.45;;;;;;;19.65;nan;100553.38;4986336;28;20049;-85
2022/08/25 03:28:40;;;;;;;6.43;3.90;;;;;;;19.67;nan;100552.13;4985973;28;20045;-86
2022/08/25 03:31:06;;;;;;;5.95;4.55;;;;;;;19.68;nan;100553.78;4996437;28;20192;-83
2022/08/25 03:33:32;;;;;;;4.43;3.78;;;;;;;19.68;nan;100561.84;4997123;28;20083;-84
2022/08/25 03:35:58;;;;;;;5.10;3.60;;;;;;;19.69;nan;100560.81;5005295;28;20047;-85
2022/08/25 03:38:24;;;;;;;5.70;4.25;;;;;;;19.67;nan;100559.34;5004660;28;20042;-85
2022/08/25 03:40:50;;;;;;;5.20;4.38;;;;;;;19.68;nan;100559.16;4994495;28;20027;-85
2022/08/25 03:43:16;;;;;;;4.78;4.00;;;;;;;19.69;nan;100563.50;4982357;28;20035;-86
2022/08/25 03:45:44;;;;;;;4.50;3.90;;;;;;;19.71;nan;100560.59;4998651;28;20540;-85
2022/08/25 03:48:09;;;;;;;5.50;4.43;;;;;;;19.88;nan;100569.03;4986690;28;20538;-86
2022/08/25 03:50:35;;;;;;;5.93;4.80;;;;;;;20.09;nan;100568.72;4985972;28;20046;-86
2022/08/25 03:53:01;;;;;;;9.63;5.43;;;;;;;20.27;nan;100557.28;4984014;28;20038;-86
2022/08/25 03:55:26;;;;;;;6.13;4.80;;;;;;;20.39;nan;100552.03;4983923;28;20478;-86
2022/08/25 03:57:53;;;;;;;4.82;4.00;;;;;;;20.46;nan;100546.63;4984919;28;20700;-85
2022/08/25 04:00:19;;;;;;;5.40;4.35;;;;;;;20.53;nan;100539.34;5042558;28;20121;-86
2022/08/25 04:02:45;;;;;;;6.28;4.57;;;;;;;20.55;nan;100527.38;4987795;28;20038;-85
2022/08/25 04:05:10;;;;;;;5.30;4.55;;;;;;;20.60;nan;100533.97;4985250;28;20594;-85
2022/08/25 04:07:36;;;;;;;5.10;4.15;;;;;;;20.60;nan;100536.66;4984477;28;20553;-85
2022/08/25 04:10:04;;;;;;;5.32;4.00;;;;;;;20.57;nan;100535.22;4976660;28;20066;-86
2022/08/25 04:12:29;;;;;;;5.60;4.47;;;;;;;20.56;nan;100539.75;4985236;28;20507;-86
2022/08/25 04:14:55;;;;;;;4.67;3.80;;;;;;;20.54;nan;100543.66;4981090;28;20075;-85
2022/08/25 04:17:20;;;;;;;5.00;3.97;;;;;;;20.50;nan;100556.72;4985135;28;20846;-85
2022/08/25 04:19:45;;;;;;;5.00;4.20;;;;;;;20.46;nan;100552.81;4986350;28;20026;-85
2022/08/25 04:22:11;;;;;;;6.43;4.75;;;;;;;20.44;nan;100548.69;4984515;28;20073;-85
2022/08/25 04:24:36;;;;;;;5.20;4.10;;;;;;;20.40;nan;100555.53;4987492;28;20538;-86
2022/08/25 04:27:02;;;;;;;4.78;4.25;;;;;;;20.37;nan;100554.09;4983800;28;20282;-86
2022/08/25 04:29:27;;;;;;;6.20;4.90;;;;;;;20.40;nan;100556.34;4989491;28;20404;-86
2022/08/25 04:31:53;;;;;;;6.15;4.85;;;;;;;20.44;nan;100549.53;4982809;28;20043;-85
2022/08/25 04:34:21;;;;;;;6.25;4.75;;;;;;;20.49;nan;100548.88;4984732;28;20066;-86
2022/08/25 04:36:49;;;;;;;6.55;5.35;;;;;;;20.55;nan;100551.56;4986252;28;20186;-85
2022/08/25 04:39:15;;;;;;;6.18;4.80;;;;;;;20.53;nan;100556.28;4984606;28;20038;-85
2022/08/25 04:41:40;;;;;;;5.68;4.47;;;;;;;20.49;nan;100562.31;4980495;28;20034;-84
2022/08/25 04:44:05;;;;;;;5.57;4.90;;;;;;;20.51;nan;100561.06;4979785;28;20038;-87
2022/08/25 04:46:32;;;;;;;6.78;5.30;;;;;;;20.51;nan;100562.91;4982054;28;20063;-86
2022/08/25 04:49:00;;;;;;;5.60;4.97;;;;;;;20.55;nan;100567.69;4985895;28;20030;-85
2022/08/25 04:51:32;;;;;;;7.10;5.40;;;;;;;20.58;nan;100566.41;4974575;28;20034;-85
2022/08/25 04:54:04;;;;;;;7.00;5.15;;;;;;;20.62;nan;100564.09;4979007;28;20043;-85
2022/08/25 04:56:32;;;;;;;6.90;5.30;;;;;;;20.66;nan;100565.31;4979816;28;20064;-85
2022/08/25 04:59:02;;;;;;;6.82;5.63;;;;;;;20.72;nan;100559.09;4982158;28;20046;-85
2022/08/25 05:01:27;;;;;;;8.45;5.30;;;;;;;20.72;nan;100559.91;4981724;28;20515;-85
2022/08/25 05:03:59;;;;;;;7.43;5.70;;;;;;;20.76;nan;100549.53;4977432;28;20064;-84
2022/08/25 05:06:25;;;;;;;6.85;5.40;;;;;;;20.74;nan;100551.66;4979934;28;20471;-85
2022/08/25 05:08:51;;;;;;;8.10;5.32;;;;;;;20.75;nan;100555.97;4982566;28;20126;-85
2022/08/25 05:11:18;;;;;;;6.25;4.95;;;;;;;20.73;nan;100552.66;4978109;28;20177;-86
2022/08/25 05:13:48;;;;;;;7.03;5.70;;;;;;;20.77;nan;100561.94;4984904;28;20034;-85
2022/08/25 05:16:14;;;;;;;5.95;4.57;;;;;;;20.77;nan;100562.75;4995409;28;20039;-86
2022/08/25 05:18:39;;;;;;;5.38;4.40;;;;;;;20.86;nan;100555.25;4982666;28;20042;-86
2022/08/25 05:21:15;;;;;;;5.88;4.93;;;;;;;21.03;nan;100554.72;4973803;28;20046;-86
2022/08/25 05:23:41;;;;;;;7.00;4.85;;;;;;;21.20;nan;100551.25;4981348;28;20445;-85
2022/08/25 05:26:13;;;;;;;5.97;4.85;;;;;;;21.39;nan;100556.66;4981063;28;20038;-85
2022/08/25 05:28:42;;;;;;;5.63;4.38;;;;;;;21.58;nan;100557.53;4967656;28;20045;-85
2022/08/25 05:31:10;;;;;;;6.45;4.60;;;;;;;21.78;nan;100547.34;4979019;28;20434;-85
2022/08/25 05:33:36;;;;;;;5.70;4.28;;;;;;;22.01;nan;100554.72;4978509;28;20046;-86
2022/08/25 05:36:03;;;;;;;6.10;4.80;;;;;;;22.27;nan;100540.13;4980247;28;20538;-86
2022/08/25 05:38:29;;;;;;;6.10;4.85;;;;;;;22.51;nan;100540.19;4984451;28;20380;-85
2022/08/25 05:41:03;;;;;;;7.10;5.18;;;;;;;22.66;nan;100526.28;4974950;28;20129;-85
2022/08/25 05:43:28;;;;;;;8.18;6.07;;;;;;;22.76;nan;100531.09;4981401;28;20499;-84
2022/08/25 05:45:55;;;;;;;6.85;5.28;;;;;;;22.81;nan;100528.53;4976942;28;20031;-85
2022/08/25 05:48:21;;;;;;;7.10;5.65;;;;;;;22.87;nan;100539.19;4974655;28;20250;-85
2022/08/25 05:50:51;;;;;;;6.18;4.93;;;;;;;23.04;nan;100535.84;4995868;28;20083;-85
2022/08/25 05:53:17;;;;;;;7.25;5.60;;;;;;;23.20;nan;100537.03;4990687;28;20042;-85
2022/08/25 05:55:45;;;;;;;6.53;5.65;;;;;;;23.27;nan;100541.25;4977144;28;20038;-85
2022/08/25 05:58:11;;;;;;;6.72;5.60;;;;;;;23.39;nan;100530.44;4983811;28;20545;-86
2022/08/25 06:00:37;;;;;;;6.78;5.53;;;;;;;23.48;nan;100539.00;4980932;28;20046;-85
2022/08/25 06:03:02;;;;;;;5.40;4.65;;;;;;;23.63;nan;100538.50;4986571;28;20039;-85
2022/08/25 06:05:28;;;;;;;6.40;5.10;;;;;;;23.86;nan;100537.63;4975942;28;20048;-85
2022/08/25 06:07:54;;;;;;;6.63;5.25;;;;;;;24.01;nan;100539.84;4980236;28;20037;-85
2022/08/25 06:10:20;;;;;;;5.57;4.90;;;;;;;24.20;nan;100530.47;4980963;28;20125;-85
2022/08/25 06:12:46;;;;;;;5.60;4.60;;;;;;;24.43;nan;100539.53;4979356;28;20039;-84
2022/08/25 06:15:14;;;;;;;5.40;4.63;;;;;;;24.58;nan;100534.44;4986555;28;20059;-84
2022/08/25 06:17:41;;;;;;;5.53;4.57;;;;;;;24.79;nan;100543.72;4977216;28;20038;-86
2022/08/25 06:20:11;;;;;;;5.75;4.82;;;;;;;24.89;nan;100537.63;4981349;28;20031;-86
2022/08/25 06:22:36;;;;;;;6.30;4.38;;;;;;;25.15;nan;100539.66;4989834;28;20034;-85
2022/08/25 06:25:03;;;;;;;5.70;4.30;;;;;;;25.38;nan;100537.84;4987879;28;20042;-87
2022/08/25 06:27:29;;;;;;;6.40;4.78;;;;;;;25.64;nan;100544.41;4972032;28;20117;-86
2022/08/25 06:29:54;;;;;;;6.65;4.75;;;;;;;25.77;nan;100543.22;4978286;28;20121;-86
2022/08/25 06:32:20;;;;;;;6.10;4.60;;;;;;;25.84;nan;100543.84;4986172;28;20035;-86
2022/08/25 06:34:45;;;;;;;6.70;4.00;;;;;;;25.99;nan;100535.91;4971750;28;20038;-87
2022/08/25 06:37:10;;;;;;;4.83;3.80;;;;;;;26.27;nan;100542.19;4968960;28;21259;-87
2022/08/25 06:39:35;;;;;;;4.90;3.90;;;;;;;26.56;nan;100534.63;4978211;28;20308;-86
2022/08/25 06:42:01;;;;;;;7.35;5.28;;;;;;;26.74;nan;100536.13;4985094;28;20395;-85
2022/08/25 06:44:27;;;;;;;6.32;4.65;;;;;;;26.94;nan;100534.66;4971974;28;20516;-86
2022/08/25 06:46:52;;;;;;;5.18;4.03;;;;;;;27.14;nan;100536.69;4970369;28;20034;-86
2022/08/25 06:49:18;;;;;;;4.65;3.50;;;;;;;27.46;nan;100537.44;4966703;28;20039;-86
2022/08/25 06:51:44;;;;;;;5.57;4.10;;;;;;;27.66;nan;100531.28;4980876;28;20026;-86
2022/08/25 06:54:10;;;;;;;6.93;4.78;;;;;;;27.84;nan;100530.03;4984732;28;20234;-86
2022/08/25 06:56:36;;;;;;;4.75;3.70;;;;;;;27.81;nan;100524.28;4972798;28;20542;-86
2022/08/25 06:59:03;;;;;;;4.82;4.22;;;;;;;28.05;nan;100528.16;4972298;28;20047;-86
2022/08/25 07:01:30;;;;;;;5.40;4.18;;;;;;;28.16;nan;100526.31;4987633;28;20038;-87
2022/08/25 07:03:58;;;;;;;4.25;3.38;;;;;;;28.40;nan;100526.59;5001942;28;20125;-85
2022/08/25 07:06:25;;;;;;;6.25;4.65;;;;;;;28.59;nan;100516.84;4981532;28;20054;-86
2022/08/25 07:08:51;;;;;;;5.05;4.13;;;;;;;28.56;nan;100511.16;4996549;28;20060;-86
2022/08/25 07:11:19;;;;;;;5.00;3.88;;;;;;;28.57;nan;100516.28;4974741;28;20050;-86
2022/08/25 07:13:44;;;;;;;6.07;4.00;;;;;;;28.91;nan;100512.19;4971415;28;20045;-86
2022/08/25 07:16:10;;;;;;;4.72;3.63;;;;;;;29.11;nan;100514.09;4984755;28;20034;-86
2022/08/25 07:18:35;;;;;;;4.47;3.67;;;;;;;29.33;nan;100511.03;4984898;28;20098;-86
2022/08/25 07:21:01;;;;;;;5.07;3.88;;;;;;;29.70;nan;100518.84;4974922;28;20038;-86
2022/08/25 07:23:26;;;;;;;4.80;3.88;;;;;;;29.98;nan;100513.78;4970372;28;20052;-85
2022/08/25 07:25:53;;;;;;;5.57;3.55;;;;;;;30.15;nan;100516.97;5001676;28;20132;-86
2022/08/25 07:28:20;;;;;;;6.15;3.97;;;;;;;30.41;nan;100520.31;4985595;28;20038;-86
2022/08/25 07:30:45;;;;;;;4.68;3.78;;;;;;;30.54;nan;100515.34;4979698;28;20031;-86
2022/08/25 07:33:11;;;;;;;5.38;3.50;;;;;;;30.61;nan;100513.09;4971246;28;20049;-87
2022/08/25 07:35:36;;;;;;;3.58;3.20;;;;;;;31.06;nan;100506.41;4986965;28;20372;-87
2022/08/25 07:38:03;;;;;;;3.45;2.70;;;;;;;31.46;nan;100508.97;4987594;28;20038;-90
2022/08/25 07:40:33;;;;;;;4.75;3.45;;;;;;;31.52;nan;100505.09;4974757;28;20135;-87
2022/08/25 07:43:03;;;;;;;4.18;2.88;;;;;;;31.68;nan;100505.72;4984050;28;20027;-86
2022/08/25 07:45:31;;;;;;;3.42;2.72;;;;;;;32.22;nan;100504.38;4983822;28;20046;-87
2022/08/25 07:47:58;;;;;;;3.60;2.72;;;;;;;32.70;nan;100506.09;4968341;28;20412;-86
2022/08/25 07:50:24;;;;;;;4.10;3.33;;;;;;;32.77;nan;100510.09;4984885;28;20065;-87
2022/08/25 07:52:50;;;;;;;3.78;3.13;;;;;;;32.92;nan;100516.41;4985927;28;20095;-86
2022/08/25 07:55:15;;;;;;;3.00;2.70;;;;;;;33.35;nan;100516.97;4970474;28;20035;-87
2022/08/25 07:57:45;;;;;;;4.63;3.80;;;;;;;33.67;nan;100514.44;4974606;28;20034;-86
2022/08/25 08:00:13;;;;;;;3.90;3.40;;;;;;;33.51;nan;100506.47;4985587;28;20031;-88
2022/08/25 08:02:40;;;;;;;3.45;2.72;;;;;;;33.91;nan;100504.00;4973361;28;20049;-87
2022/08/25 08:05:06;;;;;;;4.18;3.30;;;;;;;34.17;nan;100503.44;4970267;28;20111;-88
2022/08/25 08:07:31;;;;;;;3.42;2.72;;;;;;;34.41;nan;100501.19;4973126;28;20026;-86
2022/08/25 08:09:56;;;;;;;4.72;3.00;;;;;;;34.78;nan;100501.94;4979314;28;20093;-86
2022/08/25 08:12:23;;;;;;;3.40;2.55;;;;;;;34.98;nan;100510.75;4980881;28;20030;-87
2022/08/25 08:14:49;;;;;;;3.65;2.85;;;;;;;35.07;nan;100506.91;4971621;28;20126;-86
2022/08/25 08:17:15;;;;;;;3.58;2.50;;;;;;;35.51;nan;100465.81;4980339;28;20038;-85
2022/08/25 08:19:40;;;;;;;5.18;3.17;;;;;;;35.65;nan;100427.19;4972757;28;20524;-87
2022/08/25 08:22:05;;;;;;;3.72;2.97;;;;;;;;;;4976132;28;20041;-86
2022/08/25 08:24:37;;;;;;;2.90;2.37;;;;;;;35.81;nan;100420.06;4975164;28;20454;-86
2022/08/25 08:27:03;;;;;;;4.38;2.75;;;;;;;36.00;nan;100408.72;4980604;28;20369;-86
2022/08/25 08:29:29;;;;;;;3.55;2.72;;;;;;;35.95;nan;100411.66;4977375;28;20041;-87
2022/08/25 08:31:54;;;;;;;3.85;2.90;;;;;;;;;;4967892;28;20108;-88
2022/08/25 08:34:19;;;;;;;3.40;2.63;;;;;;;36.23;nan;100425.06;4972595;28;20035;-87
2022/08/25 08:36:44;;;;;;;3.63;2.85;;;;;;;;;;4987685;28;20451;-88
2022/08/25 08:39:10;;;;;;;5.63;3.33;;;;;;;36.92;nan;100424.03;4985160;28;20039;-86
2022/08/25 08:44:55;;;;;;;4.28;2.60;;;;;;;37.15;nan;100394.25;4981091;28;20076;-87
2022/08/25 08:47:25;;;;;;;3.28;2.50;;;;;;;37.27;nan;100418.34;4981722;28;20026;-87
2022/08/25 08:50:05;;;;;;;2.90;2.50;;;;;;;37.36;nan;100417.16;4985272;28;20091;-87
2022/08/25 08:52:46;;;;;;;3.10;2.60;;;;;;;37.71;nan;100405.03;4980987;28;20035;-88
2022/08/25 08:55:19;;;;;;;3.05;2.60;;;;;;;37.88;nan;100410.44;4985659;28;20056;-87
2022/08/25 08:57:49;;;;;;;3.13;2.40;;;;;;;38.33;nan;100409.66;4983578;28;20031;-87
2022/08/25 09:00:16;;;;;;;5.07;2.95;;;;;;;38.41;nan;100399.66;4984923;28;20031;-86
2022/08/25 09:02:55;;;;;;;3.45;2.60;;;;;;;38.31;nan;100403.69;4987430;28;20058;-87
2022/08/25 09:05:25;;;;;;;3.40;2.85;;;;;;;38.46;nan;100402.22;4985675;28;20054;-86
2022/08/25 09:08:06;;;;;;;5.38;2.67;;;;;;;38.18;nan;100404.78;4988544;28;20034;-87
2022/08/25 09:10:57;;;;;;;3.17;2.47;;;;;;;38.31;nan;100397.34;4984221;28;20043;-87
2022/08/25 09:13:53;;;;;;;2.65;2.22;;;;;;;39.38;nan;100400.00;4987087;28;20044;-87
2022/08/25 09:19:42;;;;;;;2.95;2.60;;;;;;;39.72;nan;100387.56;4974567;28;20610;-88
2022/08/25 09:22:21;;;;;;;2.90;2.30;;;;;;;40.17;nan;100383.66;4987368;28;20512;-87
2022/08/25 09:25:03;;;;;;;3.13;2.63;;;;;;;40.46;nan;100384.41;4974163;28;20042;-88
2022/08/25 09:27:47;;;;;;;3.30;2.50;;;;;;;40.31;nan;100397.91;4998889;28;20460;-87
2022/08/25 09:30:18;;;;;;;3.50;2.38;;;;;;;40.65;nan;100392.00;4984045;28;20557;-87
2022/08/25 09:32:47;;;;;;;;;;;;;;;39.85;nan;100383.59;4975355;28;20408;-88
2022/08/25 09:35:26;;;;;;;2.90;2.50;;;;;;;39.48;nan;100386.50;4975515;28;19960;-85
2022/08/25 09:38:00;;;;;;;3.30;2.90;;;;;;;38.73;nan;100375.06;4977716;28;20062;-85
2022/08/25 09:40:28;;;;;;;3.40;2.80;;;;;;;37.97;nan;100457.25;4980618;28;20047;-84
2022/08/25 09:42:57;;;;;;;3.20;2.80;;;;;;;37.38;nan;100447.16;4984947;28;20034;-85
2022/08/25 09:45:44;;;;;;;3.10;2.75;;;;;;;36.93;nan;100443.00;4974835;28;20122;-85
2022/08/25 09:48:48;;;;;;;3.03;2.55;;;;;;;38.57;nan;100453.13;4982302;28;20035;-85
2022/08/25 09:51:26;;;;;;;3.25;2.63;;;;;;;39.16;nan;100440.03;4983404;28;20051;-84
2022/08/25 09:53:51;;;;;;;3.05;2.25;;;;;;;40.14;nan;100439.75;4981657;28;20050;-84
2022/08/25 09:56:20;;;;;;;4.03;2.30;;;;;;;40.14;nan;100434.22;4984982;28;20279;-85
2022/08/25 09:58:45;;;;;;;4.38;2.72;;;;;;;40.71;nan;100424.69;4971531;28;20042;-86
2022/08/25 10:01:20;;;;;;;3.55;2.90;;;;;;;41.61;nan;100426.72;4985952;28;20038;-85
2022/08/25 10:03:55;;;;;;;2.33;1.90;;;;;;;42.14;nan;100421.41;4985644;28;20027;-85
2022/08/25 10:06:22;;;;;;;2.10;1.70;;;;;;;43.45;nan;100420.34;4985599;28;20041;-86
2022/08/25 10:09:42;;;;;;;2.75;2.22;;;;;;;43.57;nan;100413.72;4977909;28;20046;-85
2022/08/25 10:12:45;;;;;;;2.57;2.07;;;;;;;43.75;nan;100406.41;4964059;28;20062;-85
2022/08/25 10:15:19;;;;;;;2.83;2.33;;;;;;;44.87;nan;100414.66;5009476;28;20053;-85
2022/08/25 10:17:45;;;;;;;2.92;1.95;;;;;;;45.78;nan;100400.72;4991586;28;20026;-86
2022/08/25 10:20:10;;;;;;;2.92;2.17;;;;;;;46.10;nan;100402.00;4986454;28;20488;-86
2022/08/25 10:22:41;;;;;;;3.50;1.90;;;;;;;46.59;nan;100394.84;4986717;28;20034;-86
2022/08/25 10:25:10;;;;;;;3.22;2.40;;;;;;;45.00;nan;100400.34;4970048;28;20046;-83
2022/08/25 10:27:57;;;;;;;3.50;2.50;;;;;;;44.65;nan;100393.34;4981575;28;20122;-83
2022/08/25 10:30:30;;;;;;;3.00;2.30;;;;;;;45.17;nan;100387.69;4977345;28;20070;-83
2022/08/25 10:33:20;;;;;;;3.80;1.88;;;;;;;46.32;nan;100383.25;4978040;28;20027;-83
2022/08/25 10:35:52;;;;;;;2.10;1.90;;;;;;;47.31;nan;100386.28;4973737;28;20065;-83
2022/08/25 10:38:20;;;;;;;2.55;1.75;;;;;;;47.63;nan;100391.78;4982616;28;20065;-83
2022/08/25 10:41:13;;;;;;;2.22;1.75;;;;;;;46.76;nan;100387.66;4983312;28;20405;-83
2022/08/25 10:43:52;;;;;;;2.35;1.75;;;;;;;47.62;nan;100376.16;4987986;28;20050;-84
2022/08/25 10:46:39;;;;;;;2.50;1.80;;;;;;;47.70;nan;100380.53;4977935;28;20534;-85
2022/08/25 10:49:18;;;;;;;2.42;1.70;;;;;;;48.31;nan;100373.69;4983166;28;20539;-88
2022/08/25 10:52:06;;;;;;;2.15;1.80;;;;;;;48.35;nan;100363.25;4985997;28;20391;-86
2022/08/25 10:54:46;;;;;;;3.05;2.38;;;;;;;49.01;nan;100363.00;4980680;28;20317;-86
2022/08/25 10:57:38;;;;;;;2.70;2.03;;;;;;;48.72;nan;100356.06;4968677;28;20038;-85
2022/08/25 11:00:10;;;;;;;2.55;2.15;;;;;;;48.76;nan;100356.84;4973678;28;20588;-86
2022/08/25 11:02:47;;;;;;;2.30;1.98;;;;;;;49.19;nan;100348.72;4988164;28;20093;-86
2022/08/25 11:05:28;;;;;;;2.80;1.90;;;;;;;48.87;nan;100352.69;4984369;28;20058;-85
2022/08/25 11:08:05;;;;;;;2.10;1.80;;;;;;;48.94;nan;100351.84;4979289;28;20039;-87
2022/08/25 11:10:39;;;;;;;2.03;1.60;;;;;;;48.81;nan;100347.97;4982157;28;20046;-88
2022/08/25 11:13:23;;;;;;;1.70;1.30;;;;;;;49.63;nan;100343.28;4980574;28;20100;-87
2022/08/25 11:15:53;;;;;;;2.35;1.80;;;;;;;49.94;nan;100339.22;4984001;28;20035;-87
2022/08/25 11:18:19;;;;;;;2.30;1.73;;;;;;;50.63;nan;100338.81;4999778;28;20031;-87
2022/08/25 11:20:49;;;;;;;2.70;1.90;;;;;;;51.34;nan;100339.38;4989177;28;20038;-87
2022/08/25 11:23:39;;;;;;;2.20;1.85;;;;;;;50.57;nan;100332.13;4977551;28;20058;-87
2022/08/25 11:26:23;;;;;;;2.80;2.22;;;;;;;46.58;nan;100324.13;4986114;28;20084;-88
2022/08/25 11:29:02;;;;;;;2.50;1.80;;;;;;;44.25;nan;100320.53;4981500;28;20031;-86
2022/08/25 11:31:28;;;;;;;2.67;2.15;;;;;;;44.21;nan;100324.47;4983813;28;20515;-86
2022/08/25 11:33:55;;;;;;;2.90;2.03;;;;;;;44.96;nan;100322.22;4972103;28;20035;-86
2022/08/25 11:36:32;;;;;;;3.78;2.58;;;;;;;43.95;nan;100323.44;4983623;28;20333;-86
2022/08/25 11:39:10;;;;;;;2.40;2.03;;;;;;;41.54;nan;100323.88;4983625;28;20486;-85
2022/08/25 11:41:45;;;;;;;2.20;2.00;;;;;;;39.87;nan;100320.38;4968267;28;20771;-87
2022/08/25 11:44:23;;;;;;;;;;;;;;;38.70;nan;100321.28;4988841;28;20050;-86
2022/08/25 11:47:28;;;;;;;2.28;1.98;;;;;;;38.57;nan;100314.13;4982750;28;19921;-86
2022/08/25 11:49:57;;;;;;;3.90;2.28;;;;;;;38.03;nan;100317.91;4992557;28;20046;-86
2022/08/25 11:52:45;;;;;;;2.38;1.90;;;;;;;37.48;nan;100325.38;4975678;28;20034;-86
2022/08/25 11:55:18;;;;;;;2.50;2.25;;;;;;;37.04;nan;100319.38;4975782;28;20050;-85
2022/08/25 11:57:46;;;;;;;2.05;1.85;;;;;;;37.12;nan;100317.75;4975293;28;20030;-86
2022/08/25 12:00:19;;;;;;;6.28;1.73;;;;;;;37.30;nan;100312.88;4980278;28;20042;-86
2022/08/25 12:02:47;;;;;;;4.05;2.92;;;;;;;37.03;nan;100311.44;4981778;28;20035;-85
2022/08/25 12:05:15;;;;;;;3.63;2.72;;;;;;;35.95;nan;100298.81;4985609;28;20091;-87